sensor_id;sensor_type;location;lat;lon;timestamp;temperature;humidity
18083;DHT22;9168;51.194;6.840;2023-04-15T00:01:28;7.90;99.90
18083;DHT22;9168;51.194;6.840;2023-04-15T00:03:59;7.80;99.90
18083;DHT22;9168;51.194;6.840;2023-04-15T00:06:27;7.80;99.90
18083;DHT22;9168;51.194;6.840;2023-04-15T00:08:53;7.80;99.90
18083;DHT22;9168;51.194;6.840;2023-04-15T00:11:20;7.70;99.90
18083;DHT22;9168;51.194;6.840;2023-04-15T00:13:48;7.70;99.90
18083;DHT22;9168;51.194;6.840;2023-04-15T00:16:15;7.60;99.90
18083;DHT22;9168;51.194;6.840;2023-04-15T00:18:42;7.60;99.90
18083;DHT22;9168;51.194;6.840;2023-04-15T00:21:10;7.60;99.90
18083;DHT22;9168;51.194;6.840;2023-04-15T00:23:37;7.60;99.90
18083;DHT22;9168;51.194;6.840;2023-04-15T00:26:04;7.50;99.90
18083;DHT22;9168;51.194;6.840;2023-04-15T00:28:31;7.50;99.90
18083;DHT22;9168;51.194;6.840;2023-04-15T00:30:58;7.40;99.90
18083;DHT22;9168;51.194;6.840;2023-04-15T00:33:25;7.40;99.90
18083;DHT22;9168;51.194;6.840;2023-04-15T00:35:52;7.40;99.90
18083;DHT22;9168;51.194;6.840;2023-04-15T00:38:20;7.40;99.90
18083;DHT22;9168;51.194;6.840;2023-04-15T00:40:47;7.40;99.90
18083;DHT22;9168;51.194;6.840;2023-04-15T00:43:14;7.30;99.90
18083;DHT22;9168;51.194;6.840;2023-04-15T00:45:42;7.30;99.90
18083;DHT22;9168;51.194;6.840;2023-04-15T00:48:09;7.30;99.90
18083;DHT22;9168;51.194;6.840;2023-04-15T00:50:37;7.30;99.90
18083;DHT22;9168;51.194;6.840;2023-04-15T00:53:03;7.20;99.90
18083;DHT22;9168;51.194;6.840;2023-04-15T00:55:32;7.20;99.90
18083;DHT22;9168;51.194;6.840;2023-04-15T00:57:59;7.20;99.90
18083;DHT22;9168;51.194;6.840;2023-04-15T01:00:26;7.10;99.90
18083;DHT22;9168;51.194;6.840;2023-04-15T01:02:53;7.10;99.90
18083;DHT22;9168;51.194;6.840;2023-04-15T01:05:20;7.00;99.90
18083;DHT22;9168;51.194;6.840;2023-04-15T01:07:49;7.00;99.90
18083;DHT22;9168;51.194;6.840;2023-04-15T01:10:16;7.00;99.90
18083;DHT22;9168;51.194;6.840;2023-04-15T01:12:44;7.00;99.90
18083;DHT22;9168;51.194;6.840;2023-04-15T01:15:11;6.90;99.90
18083;DHT22;9168;51.194;6.840;2023-04-15T01:17:38;7.00;99.90
18083;DHT22;9168;51.194;6.840;2023-04-15T01:20:06;6.90;99.90
18083;DHT22;9168;51.194;6.840;2023-04-15T01:22:36;6.90;99.90
18083;DHT22;9168;51.194;6.840;2023-04-15T01:25:05;6.90;99.90
18083;DHT22;9168;51.194;6.840;2023-04-15T01:27:38;6.90;99.90
18083;DHT22;9168;51.194;6.840;2023-04-15T01:30:06;6.90;99.90
18083;DHT22;9168;51.194;6.840;2023-04-15T01:32:33;6.90;99.90
18083;DHT22;9168;51.194;6.840;2023-04-15T01:35:00;6.80;99.90
18083;DHT22;9168;51.194;6.840;2023-04-15T01:37:28;6.80;99.90
18083;DHT22;9168;51.194;6.840;2023-04-15T01:39:55;6.80;99.90
18083;DHT22;9168;51.194;6.840;2023-04-15T01:42:22;6.80;99.90
18083;DHT22;9168;51.194;6.840;2023-04-15T01:44:51;6.80;99.90
18083;DHT22;9168;51.194;6.840;2023-04-15T01:47:18;6.70;99.90
18083;DHT22;9168;51.194;6.840;2023-04-15T01:49:45;6.70;99.90
18083;DHT22;9168;51.194;6.840;2023-04-15T01:52:12;6.70;99.90
18083;DHT22;9168;51.194;6.840;2023-04-15T01:54:38;6.70;99.90
18083;DHT22;9168;51.194;6.840;2023-04-15T01:57:05;6.70;99.90
18083;DHT22;9168;51.194;6.840;2023-04-15T01:59:32;6.60;99.90
18083;DHT22;9168;51.194;6.840;2023-04-15T02:02:01;6.60;99.90
18083;DHT22;9168;51.194;6.840;2023-04-15T02:04:28;6.60;99.90
18083;DHT22;9168;51.194;6.840;2023-04-15T02:06:54;6.60;99.90
18083;DHT22;9168;51.194;6.840;2023-04-15T02:09:22;6.50;99.90
18083;DHT22;9168;51.194;6.840;2023-04-15T02:11:49;6.50;99.90
18083;DHT22;9168;51.194;6.840;2023-04-15T02:14:17;6.50;99.90
18083;DHT22;9168;51.194;6.840;2023-04-15T02:16:44;6.50;99.90
18083;DHT22;9168;51.194;6.840;2023-04-15T02:19:12;6.50;99.90
18083;DHT22;9168;51.194;6.840;2023-04-15T02:21:39;6.50;99.90
18083;DHT22;9168;51.194;6.840;2023-04-15T02:24:06;6.40;99.90
18083;DHT22;9168;51.194;6.840;2023-04-15T02:26:33;6.40;99.90
18083;DHT22;9168;51.194;6.840;2023-04-15T02:29:00;6.40;99.90
18083;DHT22;9168;51.194;6.840;2023-04-15T02:31:54;6.40;99.90
18083;DHT22;9168;51.194;6.840;2023-04-15T02:34:44;6.40;99.90
18083;DHT22;9168;51.194;6.840;2023-04-15T02:37:12;6.30;99.90
18083;DHT22;9168;51.194;6.840;2023-04-15T02:40:02;6.30;99.90
18083;DHT22;9168;51.194;6.840;2023-04-15T02:42:32;6.30;99.90
18083;DHT22;9168;51.194;6.840;2023-04-15T02:45:03;6.20;99.90
18083;DHT22;9168;51.194;6.840;2023-04-15T02:47:44;6.20;99.90
18083;DHT22;9168;51.194;6.840;2023-04-15T02:50:28;6.20;99.90
18083;DHT22;9168;51.194;6.840;2023-04-15T02:53:10;6.10;99.90
18083;DHT22;9168;51.194;6.840;2023-04-15T02:55:37;6.10;99.90
18083;DHT22;9168;51.194;6.840;2023-04-15T02:58:04;6.10;99.90
18083;DHT22;9168;51.194;6.840;2023-04-15T03:00:31;6.10;99.90
18083;DHT22;9168;51.194;6.840;2023-04-15T03:03:01;6.20;99.90
18083;DHT22;9168;51.194;6.840;2023-04-15T03:05:29;6.10;99.90
18083;DHT22;9168;51.194;6.840;2023-04-15T03:07:56;6.10;99.90
18083;DHT22;9168;51.194;6.840;2023-04-15T03:10:23;6.00;99.90
18083;DHT22;9168;51.194;6.840;2023-04-15T03:12:50;6.00;99.90
18083;DHT22;9168;51.194;6.840;2023-04-15T03:15:17;6.00;99.90
18083;DHT22;9168;51.194;6.840;2023-04-15T03:17:44;6.00;99.90
18083;DHT22;9168;51.194;6.840;2023-04-15T03:20:11;6.00;99.90
18083;DHT22;9168;51.194;6.840;2023-04-15T03:22:39;6.00;99.90
18083;DHT22;9168;51.194;6.840;2023-04-15T03:25:06;6.00;99.90
18083;DHT22;9168;51.194;6.840;2023-04-15T03:27:33;6.00;99.90
18083;DHT22;9168;51.194;6.840;2023-04-15T03:30:00;5.90;99.90
18083;DHT22;9168;51.194;6.840;2023-04-15T03:32:27;5.90;99.90
18083;DHT22;9168;51.194;6.840;2023-04-15T03:34:53;5.90;99.90
18083;DHT22;9168;51.194;6.840;2023-04-15T03:37:20;5.80;99.90
18083;DHT22;9168;51.194;6.840;2023-04-15T03:39:48;5.90;99.90
18083;DHT22;9168;51.194;6.840;2023-04-15T03:42:16;5.90;99.90
18083;DHT22;9168;51.194;6.840;2023-04-15T03:44:42;5.90;99.90
18083;DHT22;9168;51.194;6.840;2023-04-15T03:47:09;5.80;99.90
18083;DHT22;9168;51.194;6.840;2023-04-15T03:49:36;5.80;99.90
18083;DHT22;9168;51.194;6.840;2023-04-15T03:52:03;5.80;99.90
18083;DHT22;9168;51.194;6.840;2023-04-15T03:54:30;5.70;99.90
18083;DHT22;9168;51.194;6.840;2023-04-15T03:56:58;5.70;99.90
18083;DHT22;9168;51.194;6.840;2023-04-15T03:59:25;5.70;99.90
18083;DHT22;9168;51.194;6.840;2023-04-15T04:01:52;5.60;99.90
18083;DHT22;9168;51.194;6.840;2023-04-15T04:04:19;5.70;99.90
18083;DHT22;9168;51.194;6.840;2023-04-15T04:06:46;5.70;99.90
18083;DHT22;9168;51.194;6.840;2023-04-15T04:09:13;5.70;99.90
18083;DHT22;9168;51.194;6.840;2023-04-15T04:11:40;5.70;99.90
18083;DHT22;9168;51.194;6.840;2023-04-15T04:14:08;5.60;99.90
18083;DHT22;9168;51.194;6.840;2023-04-15T04:16:35;5.60;99.90
18083;DHT22;9168;51.194;6.840;2023-04-15T04:19:01;5.60;99.90
18083;DHT22;9168;51.194;6.840;2023-04-15T04:21:28;5.60;99.90
18083;DHT22;9168;51.194;6.840;2023-04-15T04:23:55;5.60;99.90
18083;DHT22;9168;51.194;6.840;2023-04-15T04:26:23;5.60;99.90
18083;DHT22;9168;51.194;6.840;2023-04-15T04:28:50;5.50;99.90
18083;DHT22;9168;51.194;6.840;2023-04-15T04:31:18;5.60;99.90
18083;DHT22;9168;51.194;6.840;2023-04-15T04:33:45;5.60;99.90
18083;DHT22;9168;51.194;6.840;2023-04-15T04:36:12;5.60;99.90
18083;DHT22;9168;51.194;6.840;2023-04-15T04:38:39;5.60;99.90
18083;DHT22;9168;51.194;6.840;2023-04-15T04:41:06;5.60;99.90
18083;DHT22;9168;51.194;6.840;2023-04-15T04:43:33;5.60;99.90
18083;DHT22;9168;51.194;6.840;2023-04-15T04:45:59;5.70;99.90
18083;DHT22;9168;51.194;6.840;2023-04-15T04:48:28;5.70;99.90
18083;DHT22;9168;51.194;6.840;2023-04-15T04:50:54;5.70;99.90
18083;DHT22;9168;51.194;6.840;2023-04-15T04:53:21;5.60;99.90
18083;DHT22;9168;51.194;6.840;2023-04-15T04:55:48;5.60;99.90
18083;DHT22;9168;51.194;6.840;2023-04-15T04:58:15;5.60;99.90
18083;DHT22;9168;51.194;6.840;2023-04-15T05:00:42;5.60;99.90
18083;DHT22;9168;51.194;6.840;2023-04-15T05:03:09;5.60;99.90
18083;DHT22;9168;51.194;6.840;2023-04-15T05:05:37;5.50;99.90
18083;DHT22;9168;51.194;6.840;2023-04-15T05:08:05;5.60;99.90
18083;DHT22;9168;51.194;6.840;2023-04-15T05:10:32;5.50;99.90
18083;DHT22;9168;51.194;6.840;2023-04-15T05:12:59;5.50;99.90
18083;DHT22;9168;51.194;6.840;2023-04-15T05:15:26;5.50;99.90
18083;DHT22;9168;51.194;6.840;2023-04-15T05:17:53;5.60;99.90
18083;DHT22;9168;51.194;6.840;2023-04-15T05:20:20;5.50;99.90
18083;DHT22;9168;51.194;6.840;2023-04-15T05:22:48;5.50;99.90
18083;DHT22;9168;51.194;6.840;2023-04-15T05:25:15;5.60;99.90
18083;DHT22;9168;51.194;6.840;2023-04-15T05:27:42;5.60;99.90
18083;DHT22;9168;51.194;6.840;2023-04-15T05:30:09;5.60;99.90
18083;DHT22;9168;51.194;6.840;2023-04-15T05:32:36;5.60;99.90
18083;DHT22;9168;51.194;6.840;2023-04-15T05:35:04;5.60;99.90
18083;DHT22;9168;51.194;6.840;2023-04-15T05:37:31;5.70;99.90
18083;DHT22;9168;51.194;6.840;2023-04-15T05:39:59;5.70;99.90
18083;DHT22;9168;51.194;6.840;2023-04-15T05:42:26;5.70;99.90
18083;DHT22;9168;51.194;6.840;2023-04-15T05:44:53;5.80;99.90
18083;DHT22;9168;51.194;6.840;2023-04-15T05:47:19;5.80;99.90
18083;DHT22;9168;51.194;6.840;2023-04-15T05:49:46;5.80;99.90
18083;DHT22;9168;51.194;6.840;2023-04-15T05:52:13;6.00;99.90
18083;DHT22;9168;51.194;6.840;2023-04-15T05:54:41;6.10;99.90
18083;DHT22;9168;51.194;6.840;2023-04-15T05:57:09;6.10;99.90
18083;DHT22;9168;51.194;6.840;2023-04-15T05:59:36;6.20;99.90
18083;DHT22;9168;51.194;6.840;2023-04-15T06:02:04;6.30;99.90
18083;DHT22;9168;51.194;6.840;2023-04-15T06:04:32;6.40;99.90
18083;DHT22;9168;51.194;6.840;2023-04-15T06:06:58;6.60;99.90
18083;DHT22;9168;51.194;6.840;2023-04-15T06:09:25;6.60;99.90
18083;DHT22;9168;51.194;6.840;2023-04-15T06:11:53;6.80;99.90
18083;DHT22;9168;51.194;6.840;2023-04-15T06:14:22;6.90;99.90
18083;DHT22;9168;51.194;6.840;2023-04-15T06:16:49;7.00;99.90
18083;DHT22;9168;51.194;6.840;2023-04-15T06:19:16;7.10;99.90
18083;DHT22;9168;51.194;6.840;2023-04-15T06:22:01;7.30;99.90
18083;DHT22;9168;51.194;6.840;2023-04-15T06:24:28;7.40;99.90
18083;DHT22;9168;51.194;6.840;2023-04-15T06:26:57;7.50;99.90
18083;DHT22;9168;51.194;6.840;2023-04-15T06:29:28;7.60;99.90
18083;DHT22;9168;51.194;6.840;2023-04-15T06:32:01;7.70;99.90
18083;DHT22;9168;51.194;6.840;2023-04-15T06:34:31;7.90;99.90
18083;DHT22;9168;51.194;6.840;2023-04-15T06:36:57;8.00;99.90
18083;DHT22;9168;51.194;6.840;2023-04-15T06:39:25;8.20;99.90
18083;DHT22;9168;51.194;6.840;2023-04-15T06:41:52;8.30;99.90
18083;DHT22;9168;51.194;6.840;2023-04-15T06:44:19;8.40;99.90
18083;DHT22;9168;51.194;6.840;2023-04-15T06:46:47;8.60;99.90
18083;DHT22;9168;51.194;6.840;2023-04-15T06:49:14;8.70;99.90
18083;DHT22;9168;51.194;6.840;2023-04-15T06:51:42;8.80;99.90
18083;DHT22;9168;51.194;6.840;2023-04-15T06:54:11;8.90;99.90
18083;DHT22;9168;51.194;6.840;2023-04-15T06:56:38;9.10;99.90
18083;DHT22;9168;51.194;6.840;2023-04-15T06:59:06;9.20;99.90
18083;DHT22;9168;51.194;6.840;2023-04-15T07:01:33;9.30;99.90
18083;DHT22;9168;51.194;6.840;2023-04-15T07:04:01;9.50;99.90
18083;DHT22;9168;51.194;6.840;2023-04-15T07:06:28;9.60;99.90
18083;DHT22;9168;51.194;6.840;2023-04-15T07:08:55;9.80;99.90
18083;DHT22;9168;51.194;6.840;2023-04-15T07:11:22;9.90;99.90
18083;DHT22;9168;51.194;6.840;2023-04-15T07:13:48;10.00;99.90
18083;DHT22;9168;51.194;6.840;2023-04-15T07:16:15;10.20;99.90
18083;DHT22;9168;51.194;6.840;2023-04-15T07:18:42;10.30;99.90
18083;DHT22;9168;51.194;6.840;2023-04-15T07:21:11;10.40;99.90
18083;DHT22;9168;51.194;6.840;2023-04-15T07:23:37;10.50;99.90
18083;DHT22;9168;51.194;6.840;2023-04-15T07:26:04;10.60;99.90
18083;DHT22;9168;51.194;6.840;2023-04-15T07:28:31;10.60;99.90
18083;DHT22;9168;51.194;6.840;2023-04-15T07:30:58;10.70;99.90
18083;DHT22;9168;51.194;6.840;2023-04-15T07:33:25;10.80;99.90
18083;DHT22;9168;51.194;6.840;2023-04-15T07:35:52;10.90;99.90
18083;DHT22;9168;51.194;6.840;2023-04-15T07:38:21;10.90;99.90
18083;DHT22;9168;51.194;6.840;2023-04-15T07:40:48;11.00;99.90
18083;DHT22;9168;51.194;6.840;2023-04-15T07:43:30;11.00;99.90
18083;DHT22;9168;51.194;6.840;2023-04-15T07:46:04;11.10;99.90
18083;DHT22;9168;51.194;6.840;2023-04-15T07:48:34;11.10;99.90
18083;DHT22;9168;51.194;6.840;2023-04-15T07:51:04;11.10;99.90
18083;DHT22;9168;51.194;6.840;2023-04-15T07:53:33;11.20;99.90
18083;DHT22;9168;51.194;6.840;2023-04-15T07:56:00;11.10;99.90
18083;DHT22;9168;51.194;6.840;2023-04-15T07:58:27;11.20;99.90
18083;DHT22;9168;51.194;6.840;2023-04-15T08:00:53;11.20;99.90
18083;DHT22;9168;51.194;6.840;2023-04-15T08:03:21;11.30;99.90
18083;DHT22;9168;51.194;6.840;2023-04-15T08:05:48;11.40;99.90
18083;DHT22;9168;51.194;6.840;2023-04-15T08:08:15;11.50;99.90
18083;DHT22;9168;51.194;6.840;2023-04-15T08:10:43;11.60;99.90
18083;DHT22;9168;51.194;6.840;2023-04-15T08:13:10;11.60;99.90
18083;DHT22;9168;51.194;6.840;2023-04-15T08:15:37;11.70;99.90
18083;DHT22;9168;51.194;6.840;2023-04-15T08:18:04;11.70;99.90
18083;DHT22;9168;51.194;6.840;2023-04-15T08:20:31;11.80;99.90
18083;DHT22;9168;51.194;6.840;2023-04-15T08:22:58;11.80;99.90
18083;DHT22;9168;51.194;6.840;2023-04-15T08:25:25;11.80;99.90
18083;DHT22;9168;51.194;6.840;2023-04-15T08:27:55;11.90;99.90
18083;DHT22;9168;51.194;6.840;2023-04-15T08:30:22;11.90;99.90
18083;DHT22;9168;51.194;6.840;2023-04-15T08:32:49;12.00;99.90
18083;DHT22;9168;51.194;6.840;2023-04-15T08:35:17;12.00;99.90
18083;DHT22;9168;51.194;6.840;2023-04-15T08:37:43;12.10;99.90
18083;DHT22;9168;51.194;6.840;2023-04-15T08:40:11;12.20;99.90
18083;DHT22;9168;51.194;6.840;2023-04-15T08:42:43;12.30;99.90
18083;DHT22;9168;51.194;6.840;2023-04-15T08:45:11;12.30;99.90
18083;DHT22;9168;51.194;6.840;2023-04-15T08:47:39;12.40;99.90
18083;DHT22;9168;51.194;6.840;2023-04-15T08:50:08;12.30;99.90
18083;DHT22;9168;51.194;6.840;2023-04-15T08:52:36;12.40;99.90
18083;DHT22;9168;51.194;6.840;2023-04-15T08:55:03;12.50;99.90
18083;DHT22;9168;51.194;6.840;2023-04-15T08:57:32;12.40;99.90
18083;DHT22;9168;51.194;6.840;2023-04-15T09:00:01;12.40;99.90
18083;DHT22;9168;51.194;6.840;2023-04-15T09:02:30;12.50;99.90
18083;DHT22;9168;51.194;6.840;2023-04-15T09:04:57;12.50;99.90
18083;DHT22;9168;51.194;6.840;2023-04-15T09:07:24;12.50;99.90
18083;DHT22;9168;51.194;6.840;2023-04-15T09:09:51;12.60;99.90
18083;DHT22;9168;51.194;6.840;2023-04-15T09:12:18;12.50;99.90
18083;DHT22;9168;51.194;6.840;2023-04-15T09:14:46;12.60;99.90
18083;DHT22;9168;51.194;6.840;2023-04-15T09:17:12;12.70;99.90
18083;DHT22;9168;51.194;6.840;2023-04-15T09:19:45;12.80;99.90
18083;DHT22;9168;51.194;6.840;2023-04-15T09:22:12;12.90;99.90
18083;DHT22;9168;51.194;6.840;2023-04-15T09:24:39;13.10;99.90
18083;DHT22;9168;51.194;6.840;2023-04-15T09:27:08;13.20;99.90
18083;DHT22;9168;51.194;6.840;2023-04-15T09:29:35;13.30;99.90
18083;DHT22;9168;51.194;6.840;2023-04-15T09:32:09;13.40;99.90
18083;DHT22;9168;51.194;6.840;2023-04-15T09:34:37;13.50;99.90
18083;DHT22;9168;51.194;6.840;2023-04-15T09:37:05;13.50;99.90
18083;DHT22;9168;51.194;6.840;2023-04-15T09:39:50;13.60;99.90
18083;DHT22;9168;51.194;6.840;2023-04-15T09:42:18;13.60;99.90
18083;DHT22;9168;51.194;6.840;2023-04-15T09:44:48;13.70;99.90
18083;DHT22;9168;51.194;6.840;2023-04-15T09:47:28;13.80;99.90
18083;DHT22;9168;51.194;6.840;2023-04-15T09:49:56;13.80;99.90
18083;DHT22;9168;51.194;6.840;2023-04-15T09:52:24;13.90;99.90
18083;DHT22;9168;51.194;6.840;2023-04-15T09:54:53;14.00;99.90
18083;DHT22;9168;51.194;6.840;2023-04-15T09:57:21;14.10;99.90
18083;DHT22;9168;51.194;6.840;2023-04-15T09:59:48;14.10;99.90
18083;DHT22;9168;51.194;6.840;2023-04-15T10:02:17;14.20;99.90
18083;DHT22;9168;51.194;6.840;2023-04-15T10:04:44;14.30;99.90
18083;DHT22;9168;51.194;6.840;2023-04-15T10:07:14;14.60;99.90
18083;DHT22;9168;51.194;6.840;2023-04-15T10:09:44;14.80;99.90
18083;DHT22;9168;51.194;6.840;2023-04-15T10:12:12;15.00;99.90
18083;DHT22;9168;51.194;6.840;2023-04-15T10:14:41;15.10;99.90
18083;DHT22;9168;51.194;6.840;2023-04-15T10:17:10;15.30;99.90
18083;DHT22;9168;51.194;6.840;2023-04-15T10:19:38;15.50;99.90
18083;DHT22;9168;51.194;6.840;2023-04-15T10:22:06;15.60;99.90
18083;DHT22;9168;51.194;6.840;2023-04-15T10:24:33;15.80;99.90
18083;DHT22;9168;51.194;6.840;2023-04-15T10:27:02;15.90;99.90
18083;DHT22;9168;51.194;6.840;2023-04-15T10:29:30;16.10;99.90
18083;DHT22;9168;51.194;6.840;2023-04-15T10:31:58;16.30;99.90
18083;DHT22;9168;51.194;6.840;2023-04-15T10:34:26;16.50;99.90
18083;DHT22;9168;51.194;6.840;2023-04-15T10:36:54;16.70;99.90
18083;DHT22;9168;51.194;6.840;2023-04-15T10:39:37;16.80;99.90
18083;DHT22;9168;51.194;6.840;2023-04-15T10:42:08;16.60;99.90
18083;DHT22;9168;51.194;6.840;2023-04-15T10:44:35;16.30;99.90
18083;DHT22;9168;51.194;6.840;2023-04-15T10:47:09;16.10;99.90
18083;DHT22;9168;51.194;6.840;2023-04-15T10:49:42;16.10;99.90
18083;DHT22;9168;51.194;6.840;2023-04-15T10:52:10;16.30;99.90
18083;DHT22;9168;51.194;6.840;2023-04-15T10:54:37;16.30;99.90
18083;DHT22;9168;51.194;6.840;2023-04-15T10:57:13;16.30;99.90
18083;DHT22;9168;51.194;6.840;2023-04-15T10:59:59;16.20;99.90
18083;DHT22;9168;51.194;6.840;2023-04-15T11:02:38;15.90;99.90
18083;DHT22;9168;51.194;6.840;2023-04-15T11:05:06;15.80;99.90
18083;DHT22;9168;51.194;6.840;2023-04-15T11:07:37;15.60;99.90
18083;DHT22;9168;51.194;6.840;2023-04-15T11:13:23;15.30;99.90
18083;DHT22;9168;51.194;6.840;2023-04-15T11:15:55;15.00;99.90
18083;DHT22;9168;51.194;6.840;2023-04-15T11:18:24;15.00;99.90
18083;DHT22;9168;51.194;6.840;2023-04-15T11:20:53;14.80;99.90
18083;DHT22;9168;51.194;6.840;2023-04-15T11:23:27;14.90;99.90
18083;DHT22;9168;51.194;6.840;2023-04-15T11:25:55;14.90;99.90
18083;DHT22;9168;51.194;6.840;2023-04-15T11:28:25;15.10;99.90
18083;DHT22;9168;51.194;6.840;2023-04-15T11:30:53;15.50;99.90
18083;DHT22;9168;51.194;6.840;2023-04-15T11:33:21;16.00;99.90
18083;DHT22;9168;51.194;6.840;2023-04-15T11:35:49;16.50;99.90
18083;DHT22;9168;51.194;6.840;2023-04-15T11:38:17;16.90;99.90
18083;DHT22;9168;51.194;6.840;2023-04-15T11:40:44;17.40;99.90
18083;DHT22;9168;51.194;6.840;2023-04-15T11:43:13;18.20;99.90
18083;DHT22;9168;51.194;6.840;2023-04-15T11:45:50;18.50;99.90
18083;DHT22;9168;51.194;6.840;2023-04-15T11:48:18;18.30;99.90
18083;DHT22;9168;51.194;6.840;2023-04-15T11:50:45;17.80;99.90
18083;DHT22;9168;51.194;6.840;2023-04-15T11:53:13;17.30;99.90
18083;DHT22;9168;51.194;6.840;2023-04-15T11:55:41;16.80;99.90
18083;DHT22;9168;51.194;6.840;2023-04-15T11:58:10;16.40;99.90
18083;DHT22;9168;51.194;6.840;2023-04-15T12:00:38;16.10;99.90
18083;DHT22;9168;51.194;6.840;2023-04-15T12:03:13;15.80;99.90
18083;DHT22;9168;51.194;6.840;2023-04-15T12:06:08;15.60;99.90
18083;DHT22;9168;51.194;6.840;2023-04-15T12:08:49;15.40;99.90
18083;DHT22;9168;51.194;6.840;2023-04-15T12:11:17;15.10;99.90
18083;DHT22;9168;51.194;6.840;2023-04-15T12:13:48;14.90;99.90
18083;DHT22;9168;51.194;6.840;2023-04-15T12:16:17;14.70;99.90
18083;DHT22;9168;51.194;6.840;2023-04-15T12:18:46;14.50;99.90
18083;DHT22;9168;51.194;6.840;2023-04-15T12:21:18;14.40;99.90
18083;DHT22;9168;51.194;6.840;2023-04-15T12:23:48;14.20;99.90
18083;DHT22;9168;51.194;6.840;2023-04-15T12:26:15;14.00;99.90
18083;DHT22;9168;51.194;6.840;2023-04-15T12:28:42;13.90;99.90
18083;DHT22;9168;51.194;6.840;2023-04-15T12:34:40;13.80;99.90
18083;DHT22;9168;51.194;6.840;2023-04-15T12:37:46;13.70;99.90
18083;DHT22;9168;51.194;6.840;2023-04-15T12:43:06;13.50;99.90
18083;DHT22;9168;51.194;6.840;2023-04-15T12:46:20;13.50;99.90
18083;DHT22;9168;51.194;6.840;2023-04-15T12:48:56;13.50;99.90
18083;DHT22;9168;51.194;6.840;2023-04-15T12:51:56;13.40;99.90
18083;DHT22;9168;51.194;6.840;2023-04-15T12:54:24;13.40;99.90
18083;DHT22;9168;51.194;6.840;2023-04-15T12:59:59;13.30;99.90
18083;DHT22;9168;51.194;6.840;2023-04-15T13:02:35;13.40;99.90
18083;DHT22;9168;51.194;6.840;2023-04-15T13:05:10;13.30;99.90
18083;DHT22;9168;51.194;6.840;2023-04-15T13:07:43;13.20;99.90
18083;DHT22;9168;51.194;6.840;2023-04-15T13:10:17;13.20;99.90
18083;DHT22;9168;51.194;6.840;2023-04-15T13:12:54;13.20;99.90
18083;DHT22;9168;51.194;6.840;2023-04-15T13:15:21;13.10;99.90
18083;DHT22;9168;51.194;6.840;2023-04-15T13:17:48;13.10;99.90
18083;DHT22;9168;51.194;6.840;2023-04-15T13:20:15;13.00;99.90
18083;DHT22;9168;51.194;6.840;2023-04-15T13:22:43;12.90;99.90
18083;DHT22;9168;51.194;6.840;2023-04-15T13:25:10;12.90;99.90
18083;DHT22;9168;51.194;6.840;2023-04-15T13:27:37;12.90;99.90
18083;DHT22;9168;51.194;6.840;2023-04-15T13:30:05;12.90;99.90
18083;DHT22;9168;51.194;6.840;2023-04-15T13:32:32;12.90;99.90
18083;DHT22;9168;51.194;6.840;2023-04-15T13:34:59;12.90;99.90
18083;DHT22;9168;51.194;6.840;2023-04-15T13:37:26;12.80;99.90
18083;DHT22;9168;51.194;6.840;2023-04-15T13:39:55;12.80;99.90
18083;DHT22;9168;51.194;6.840;2023-04-15T13:42:22;12.80;99.90
18083;DHT22;9168;51.194;6.840;2023-04-15T13:44:49;12.80;99.90
18083;DHT22;9168;51.194;6.840;2023-04-15T13:47:16;12.80;99.90
18083;DHT22;9168;51.194;6.840;2023-04-15T13:49:44;12.80;99.90
18083;DHT22;9168;51.194;6.840;2023-04-15T13:52:11;12.80;99.90
18083;DHT22;9168;51.194;6.840;2023-04-15T13:54:38;12.70;99.90
18083;DHT22;9168;51.194;6.840;2023-04-15T13:57:06;12.80;99.90
18083;DHT22;9168;51.194;6.840;2023-04-15T13:59:33;12.80;99.90
18083;DHT22;9168;51.194;6.840;2023-04-15T14:02:01;12.70;99.90
18083;DHT22;9168;51.194;6.840;2023-04-15T14:04:29;12.70;99.90
18083;DHT22;9168;51.194;6.840;2023-04-15T14:06:57;12.60;99.90
18083;DHT22;9168;51.194;6.840;2023-04-15T14:09:24;12.70;99.90
18083;DHT22;9168;51.194;6.840;2023-04-15T14:11:55;12.70;99.90
18083;DHT22;9168;51.194;6.840;2023-04-15T14:14:29;12.60;99.90
18083;DHT22;9168;51.194;6.840;2023-04-15T14:16:56;12.60;99.90
18083;DHT22;9168;51.194;6.840;2023-04-15T14:19:23;12.60;99.90
18083;DHT22;9168;51.194;6.840;2023-04-15T14:21:56;12.70;99.90
18083;DHT22;9168;51.194;6.840;2023-04-15T14:24:24;12.70;99.90
18083;DHT22;9168;51.194;6.840;2023-04-15T14:26:51;12.70;99.90
18083;DHT22;9168;51.194;6.840;2023-04-15T14:29:18;12.70;99.90
18083;DHT22;9168;51.194;6.840;2023-04-15T14:31:47;12.70;99.90
18083;DHT22;9168;51.194;6.840;2023-04-15T14:34:14;12.70;99.90
18083;DHT22;9168;51.194;6.840;2023-04-15T14:36:41;12.70;99.90
18083;DHT22;9168;51.194;6.840;2023-04-15T14:39:09;12.80;99.90
18083;DHT22;9168;51.194;6.840;2023-04-15T14:41:37;12.80;99.90
18083;DHT22;9168;51.194;6.840;2023-04-15T14:44:04;12.90;99.90
18083;DHT22;9168;51.194;6.840;2023-04-15T14:46:33;13.10;99.90
18083;DHT22;9168;51.194;6.840;2023-04-15T14:49:02;13.20;99.90
18083;DHT22;9168;51.194;6.840;2023-04-15T14:51:29;13.30;99.90
18083;DHT22;9168;51.194;6.840;2023-04-15T14:53:56;13.30;99.90
18083;DHT22;9168;51.194;6.840;2023-04-15T14:56:23;13.30;99.90
18083;DHT22;9168;51.194;6.840;2023-04-15T14:58:50;13.30;99.90
18083;DHT22;9168;51.194;6.840;2023-04-15T15:02:10;13.20;99.90
18083;DHT22;9168;51.194;6.840;2023-04-15T15:04:19;13.10;99.90
18083;DHT22;9168;51.194;6.840;2023-04-15T15:06:46;13.10;99.90
18083;DHT22;9168;51.194;6.840;2023-04-15T15:09:13;13.00;99.90
18083;DHT22;9168;51.194;6.840;2023-04-15T15:11:41;12.90;99.90
18083;DHT22;9168;51.194;6.840;2023-04-15T15:14:09;12.90;99.90
18083;DHT22;9168;51.194;6.840;2023-04-15T15:16:46;12.80;99.90
18083;DHT22;9168;51.194;6.840;2023-04-15T15:19:20;12.80;99.90
18083;DHT22;9168;51.194;6.840;2023-04-15T15:21:52;12.70;99.90
18083;DHT22;9168;51.194;6.840;2023-04-15T15:24:19;12.60;99.90
18083;DHT22;9168;51.194;6.840;2023-04-15T15:29:52;12.50;99.90
18083;DHT22;9168;51.194;6.840;2023-04-15T15:32:21;12.50;99.90
18083;DHT22;9168;51.194;6.840;2023-04-15T15:34:50;12.40;99.90
18083;DHT22;9168;51.194;6.840;2023-04-15T15:37:26;12.40;99.90
18083;DHT22;9168;51.194;6.840;2023-04-15T15:39:52;12.30;99.90
18083;DHT22;9168;51.194;6.840;2023-04-15T15:42:19;12.30;99.90
18083;DHT22;9168;51.194;6.840;2023-04-15T15:44:46;12.20;99.90
18083;DHT22;9168;51.194;6.840;2023-04-15T15:47:13;12.10;99.90
18083;DHT22;9168;51.194;6.840;2023-04-15T15:49:40;12.10;99.90
18083;DHT22;9168;51.194;6.840;2023-04-15T15:52:10;12.00;99.90
18083;DHT22;9168;51.194;6.840;2023-04-15T15:54:42;12.00;99.90
18083;DHT22;9168;51.194;6.840;2023-04-15T15:57:09;12.00;99.90
18083;DHT22;9168;51.194;6.840;2023-04-15T15:59:38;11.90;99.90
18083;DHT22;9168;51.194;6.840;2023-04-15T16:02:09;11.90;99.90
18083;DHT22;9168;51.194;6.840;2023-04-15T16:04:37;11.90;99.90
18083;DHT22;9168;51.194;6.840;2023-04-15T16:07:45;11.80;99.90
18083;DHT22;9168;51.194;6.840;2023-04-15T16:10:46;11.80;99.90
18083;DHT22;9168;51.194;6.840;2023-04-15T16:13:42;11.80;99.90
18083;DHT22;9168;51.194;6.840;2023-04-15T16:16:23;11.70;99.90
18083;DHT22;9168;51.194;6.840;2023-04-15T16:19:55;11.70;99.90
18083;DHT22;9168;51.194;6.840;2023-04-15T16:23:00;11.70;99.90